Time;durP1;ratioP1;P1;durP2;ratioP2;P2;SDS_P1;SDS_P2;PMS_P1;PMS_P2;Temp;Humidity;BMP_temperature;BMP_pressure;BME280_temperature;BME280_humidity;BME280_pressure;Samples;Min_cycle;Max_cycle;Signal;HPM_P1;HPM_P2
2021/10/29 00:01:02;;;;;;;19.80;16.58;;;6.80;99.90;;;;;;5033365;28;20231;-81
2021/10/29 00:03:29;;;;;;;22.58;20.17;;;6.70;99.90;;;;;;5052033;28;20214;-81
2021/10/29 00:05:56;;;;;;;18.90;16.58;;;6.70;99.90;;;;;;5051072;28;20252;-80
2021/10/29 00:08:23;;;;;;;23.17;18.98;;;6.70;99.90;;;;;;5032190;28;20202;-81
2021/10/29 00:10:49;;;;;;;20.38;17.70;;;6.70;99.90;;;;;;5033012;28;20211;-81
2021/10/29 00:13:18;;;;;;;22.25;18.92;;;6.60;99.90;;;;;;5032647;28;20206;-81
2021/10/29 00:15:45;;;;;;;27.52;20.33;;;6.60;99.90;;;;;;5031650;28;20231;-80
2021/10/29 00:18:12;;;;;;;23.38;20.80;;;6.60;99.90;;;;;;5051571;28;20270;-81
2021/10/29 00:20:39;;;;;;;22.92;20.55;;;6.60;99.90;;;;;;5051821;28;20213;-81
2021/10/29 00:23:06;;;;;;;20.70;18.50;;;6.60;99.90;;;;;;5026647;28;20406;-80
2021/10/29 00:25:33;;;;;;;20.63;18.48;;;6.60;99.90;;;;;;5018438;28;20231;-81
2021/10/29 00:28:00;;;;;;;17.88;16.13;;;6.50;99.90;;;;;;5035226;28;20207;-81
2021/10/29 00:30:29;;;;;;;20.92;18.33;;;6.50;99.90;;;;;;5038560;28;20222;-81
2021/10/29 00:32:55;;;;;;;18.80;16.80;;;6.40;99.90;;;;;;5023077;28;20198;-81
2021/10/29 00:35:22;;;;;;;20.75;16.85;;;6.50;99.90;;;;;;5018005;28;20227;-80
2021/10/29 00:37:49;;;;;;;21.67;17.17;;;6.40;99.90;;;;;;5036666;28;20213;-81
2021/10/29 00:40:16;;;;;;;22.63;17.63;;;6.40;99.90;;;;;;5038903;28;20217;-81
2021/10/29 00:42:43;;;;;;;19.10;16.13;;;6.40;99.90;;;;;;5021001;28;20231;-80
2021/10/29 00:45:11;;;;;;;22.10;19.42;;;6.30;99.90;;;;;;5018747;28;20234;-81
2021/10/29 00:47:39;;;;;;;22.55;18.92;;;6.40;99.90;;;;;;5033878;28;20210;-81
2021/10/29 00:50:07;;;;;;;20.70;18.42;;;6.30;99.90;;;;;;5038112;28;20841;-81
2021/10/29 00:52:34;;;;;;;19.73;17.67;;;6.30;99.90;;;;;;5023511;28;20199;-81
2021/10/29 00:55:01;;;;;;;20.65;18.52;;;6.30;99.90;;;;;;5018257;28;20227;-81
2021/10/29 00:57:28;;;;;;;19.63;15.73;;;6.30;99.90;;;;;;5031858;28;20203;-81
2021/10/29 00:59:55;;;;;;;24.50;17.05;;;6.30;99.90;;;;;;5037917;28;20259;-80
2021/10/29 01:02:21;;;;;;;19.67;16.92;;;6.30;99.90;;;;;;5025903;28;20305;-81
2021/10/29 01:04:50;;;;;;;22.63;18.52;;;6.30;99.90;;;;;;5025773;28;20679;-81
2021/10/29 01:07:16;;;;;;;22.83;17.42;;;6.30;99.90;;;;;;5038031;28;20314;-81
2021/10/29 01:09:44;;;;;;;20.35;18.25;;;6.30;99.90;;;;;;5031410;28;20620;-81
2021/10/29 01:12:11;;;;;;;20.70;18.48;;;6.30;99.90;;;;;;5018110;28;20260;-81
2021/10/29 01:14:37;;;;;;;23.13;20.73;;;6.30;99.90;;;;;;5022748;28;20213;-81
2021/10/29 01:17:05;;;;;;;24.50;20.58;;;6.30;99.90;;;;;;5038150;28;20551;-81
2021/10/29 01:19:33;;;;;;;22.95;19.35;;;6.30;99.90;;;;;;5034264;28;20196;-80
2021/10/29 01:22:03;;;;;;;20.88;17.25;;;6.30;99.90;;;;;;5017989;28;20223;-81
2021/10/29 01:24:30;;;;;;;22.10;19.70;;;6.30;99.90;;;;;;5020607;28;20213;-81
2021/10/29 01:26:56;;;;;;;22.55;19.42;;;6.30;99.90;;;;;;5037736;28;20242;-81
2021/10/29 01:29:23;;;;;;;20.40;18.15;;;6.20;99.90;;;;;;5035333;28;20207;-81
2021/10/29 01:31:50;;;;;;;18.85;16.67;;;6.20;99.90;;;;;;5018361;28;20195;-79
2021/10/29 01:34:17;;;;;;;26.70;19.65;;;6.10;99.90;;;;;;5017718;28;20210;-81
2021/10/29 01:36:44;;;;;;;23.65;17.80;;;6.00;99.90;;;;;;5037334;28;20233;-80
2021/10/29 01:39:16;;;;;;;28.10;21.67;;;5.90;99.90;;;;;;5036101;28;20211;-81
2021/10/29 01:41:44;;;;;;;31.17;21.95;;;5.90;99.90;;;;;;5037566;28;20229;-81
2021/10/29 01:44:12;;;;;;;27.33;21.23;;;6.00;99.90;;;;;;5036641;28;20210;-80
2021/10/29 01:46:39;;;;;;;28.38;22.35;;;5.90;99.90;;;;;;5017439;28;20235;-81
2021/10/29 01:49:06;;;;;;;28.88;21.90;;;5.90;99.90;;;;;;5018357;28;20211;-80
2021/10/29 01:51:33;;;;;;;25.85;21.65;;;6.00;99.90;;;;;;5037289;28;20211;-81
2021/10/29 01:54:00;;;;;;;24.77;20.00;;;6.00;99.90;;;;;;5034834;28;20207;-81
2021/10/29 01:56:28;;;;;;;22.08;19.70;;;6.00;99.90;;;;;;5037233;28;20783;-81
2021/10/29 01:58:55;;;;;;;27.52;22.90;;;6.00;99.90;;;;;;5026924;28;20199;-81
2021/10/29 02:01:22;;;;;;;21.83;19.50;;;6.00;99.90;;;;;;5017054;28;20229;-81
2021/10/29 02:03:48;;;;;;;21.52;18.80;;;6.00;99.90;;;;;;5018509;28;20209;-80
2021/10/29 02:06:15;;;;;;;24.10;21.60;;;5.90;99.90;;;;;;5017829;28;20242;-81
2021/10/29 02:08:42;;;;;;;23.98;20.25;;;6.00;99.90;;;;;;5018521;28;20225;-81
2021/10/29 02:11:09;;;;;;;25.75;22.60;;;6.00;99.90;;;;;;5017697;28;20211;-80
2021/10/29 02:13:38;;;;;;;22.05;19.67;;;6.00;99.90;;;;;;5026163;28;20195;-81
2021/10/29 02:16:05;;;;;;;26.48;20.98;;;6.00;99.90;;;;;;5037453;28;20223;-81
2021/10/29 02:18:32;;;;;;;24.70;20.70;;;6.00;99.90;;;;;;5029292;28;20195;-81
2021/10/29 02:20:59;;;;;;;21.92;19.52;;;6.00;99.90;;;;;;5017455;28;20207;-80
2021/10/29 02:23:27;;;;;;;22.50;18.92;;;6.00;99.90;;;;;;5027408;28;20223;-81
2021/10/29 02:25:54;;;;;;;24.17;21.02;;;6.00;99.90;;;;;;5036539;28;20237;-81
2021/10/29 02:28:22;;;;;;;21.40;18.52;;;6.00;99.90;;;;;;5026979;28;20215;-81
2021/10/29 02:30:51;;;;;;;23.17;19.35;;;6.00;99.90;;;;;;5016638;28;20219;-81
2021/10/29 02:33:18;;;;;;;22.75;19.38;;;6.00;99.90;;;;;;5028565;28;20661;-80
2021/10/29 02:35:46;;;;;;;26.02;21.00;;;6.00;99.90;;;;;;5026481;28;20692;-80
2021/10/29 02:38:13;;;;;;;23.67;19.30;;;6.00;99.90;;;;;;5016725;28;20207;-81
2021/10/29 02:40:40;;;;;;;22.40;17.60;;;6.00;99.90;;;;;;5016562;28;20207;-81
2021/10/29 02:43:07;;;;;;;19.17;16.73;;;6.00;99.90;;;;;;5016692;28;20223;-81
2021/10/29 02:45:33;;;;;;;21.85;18.90;;;6.00;99.90;;;;;;5016047;28;20231;-80
2021/10/29 02:48:02;;;;;;;24.95;19.83;;;6.00;99.90;;;;;;5025590;28;20202;-81
2021/10/29 02:50:28;;;;;;;19.00;17.00;;;6.00;99.90;;;;;;5033547;28;20206;-81
2021/10/29 02:52:55;;;;;;;20.45;17.48;;;6.00;99.90;;;;;;5016413;28;20208;-81
2021/10/29 02:55:22;;;;;;;20.85;18.15;;;6.00;99.90;;;;;;5017786;28;20233;-80
2021/10/29 02:57:49;;;;;;;23.92;18.17;;;6.00;99.90;;;;;;5035934;28;20212;-81
2021/10/29 03:00:18;;;;;;;22.45;18.40;;;5.90;99.90;;;;;;5035586;28;20210;-79
2021/10/29 03:02:45;;;;;;;21.63;17.98;;;5.90;99.90;;;;;;4996230;28;20219;-81
2021/10/29 03:05:14;;;;;;;22.45;17.85;;;5.90;99.90;;;;;;5005028;28;20222;-80
2021/10/29 03:07:41;;;;;;;21.55;18.90;;;5.70;99.90;;;;;;5036339;28;20207;-81
2021/10/29 03:10:10;;;;;;;22.73;18.23;;;5.50;99.90;;;;;;5032815;28;20557;-80
2021/10/29 03:12:38;;;;;;;22.88;19.35;;;5.40;99.90;;;;;;5016225;28;20218;-81
2021/10/29 03:15:06;;;;;;;19.08;17.02;;;5.40;99.90;;;;;;5017706;28;20275;-79
2021/10/29 03:17:33;;;;;;;26.30;17.52;;;5.40;99.90;;;;;;5036677;28;20695;-78
2021/10/29 03:20:00;;;;;;;22.98;19.77;;;5.50;99.90;;;;;;5038230;28;20214;-78
2021/10/29 03:22:28;;;;;;;19.83;17.13;;;5.50;99.90;;;;;;5023926;28;20219;-78
2021/10/29 03:24:55;;;;;;;19.50;16.35;;;5.50;99.90;;;;;;5029043;28;20236;-77
2021/10/29 03:27:21;;;;;;;19.33;16.35;;;5.50;99.90;;;;;;5039261;28;20213;-79
2021/10/29 03:29:48;;;;;;;19.17;16.00;;;5.60;99.90;;;;;;5031702;28;20723;-79
2021/10/29 03:32:18;;;;;;;21.17;18.38;;;5.60;99.90;;;;;;5015969;28;20689;-79
2021/10/29 03:34:45;;;;;;;23.35;18.65;;;5.60;99.90;;;;;;5023713;28;20606;-80
2021/10/29 03:37:22;;;;;;;20.58;16.85;;;5.60;99.90;;;;;;5036126;28;20203;-79
2021/10/29 03:39:52;;;;;;;26.88;18.75;;;5.60;99.90;;;;;;5027618;28;20373;-79
2021/10/29 03:42:24;;;;;;;21.27;17.30;;;5.50;99.90;;;;;;5015062;28;20251;-78
2021/10/29 03:44:56;;;;;;;23.85;18.50;;;5.60;99.90;;;;;;5023197;28;20259;-78
2021/10/29 03:47:23;;;;;;;23.00;20.70;;;5.60;99.90;;;;;;5036090;28;20211;-79
2021/10/29 03:49:51;;;;;;;19.95;16.38;;;5.60;99.90;;;;;;5023818;28;20207;-81
2021/10/29 03:52:24;;;;;;;19.88;17.77;;;5.50;99.90;;;;;;5015821;28;20207;-82
2021/10/29 03:54:55;;;;;;;22.17;17.80;;;5.60;99.90;;;;;;5027678;28;20235;-82
2021/10/29 03:57:25;;;;;;;20.33;18.27;;;5.50;99.90;;;;;;5035421;28;20270;-79
2021/10/29 03:59:53;;;;;;;20.63;15.40;;;5.50;99.90;;;;;;5027164;28;20229;-78
2021/10/29 04:02:20;;;;;;;19.67;16.88;;;5.50;99.90;;;;;;5018960;28;20286;-78
2021/10/29 04:04:47;;;;;;;18.52;16.42;;;5.50;99.90;;;;;;5033817;28;20737;-79
2021/10/29 04:07:14;;;;;;;21.10;16.85;;;5.50;99.90;;;;;;5039122;28;20708;-79
2021/10/29 04:09:42;;;;;;;20.10;16.67;;;5.40;99.90;;;;;;5024878;28;20207;-80
2021/10/29 04:12:10;;;;;;;19.25;17.00;;;5.40;99.90;;;;;;5018577;28;20207;-80
2021/10/29 04:14:37;;;;;;;18.50;15.82;;;5.40;99.90;;;;;;5030969;28;20202;-80
2021/10/29 04:17:04;;;;;;;19.50;16.63;;;5.40;99.90;;;;;;5038335;28;20207;-79
2021/10/29 04:19:32;;;;;;;20.33;15.50;;;5.40;99.90;;;;;;5021910;28;20199;-80
2021/10/29 04:22:00;;;;;;;16.75;14.30;;;5.40;99.90;;;;;;5018839;28;20214;-80
2021/10/29 04:24:27;;;;;;;18.40;16.20;;;5.30;99.90;;;;;;5033905;28;20653;-80
2021/10/29 04:26:56;;;;;;;18.75;16.75;;;5.30;99.90;;;;;;5038297;28;20237;-80
2021/10/29 04:29:27;;;;;;;17.40;15.52;;;5.30;99.90;;;;;;5023233;28;20305;-80
2021/10/29 04:31:54;;;;;;;19.63;17.65;;;5.30;99.90;;;;;;5018885;28;20207;-80
2021/10/29 04:34:22;;;;;;;20.80;16.70;;;5.40;99.90;;;;;;5037759;28;20194;-79
2021/10/29 04:36:50;;;;;;;22.25;18.77;;;5.40;99.90;;;;;;5037967;28;20328;-80
2021/10/29 04:39:17;;;;;;;28.40;20.05;;;5.40;99.90;;;;;;5020086;28;20221;-79
2021/10/29 04:41:46;;;;;;;24.38;18.20;;;5.50;99.90;;;;;;5018748;28;20214;-80
2021/10/29 04:44:14;;;;;;;26.17;19.25;;;5.50;99.90;;;;;;5036014;28;20229;-80
2021/10/29 04:46:43;;;;;;;32.20;19.80;;;5.60;99.90;;;;;;5036400;28;20222;-80
2021/10/29 04:49:10;;;;;;;26.02;20.13;;;5.60;99.90;;;;;;5018527;28;20207;-80
2021/10/29 04:51:37;;;;;;;34.30;20.77;;;5.70;99.90;;;;;;5018363;28;20211;-79
2021/10/29 04:54:04;;;;;;;33.67;20.95;;;5.70;99.90;;;;;;4998691;28;20222;-80
2021/10/29 04:56:30;;;;;;;22.23;18.38;;;5.70;99.90;;;;;;4999108;28;20707;-80
2021/10/29 04:58:57;;;;;;;22.35;19.90;;;5.70;99.90;;;;;;5035579;28;20210;-80
2021/10/29 05:01:24;;;;;;;29.05;22.65;;;5.70;99.90;;;;;;5037906;28;20206;-79
2021/10/29 05:03:52;;;;;;;28.70;22.92;;;5.70;99.90;;;;;;5020132;28;20222;-80
2021/10/29 05:06:19;;;;;;;35.63;28.45;;;5.70;99.90;;;;;;5017915;28;20230;-80
2021/10/29 05:08:45;;;;;;;30.35;23.15;;;5.60;99.90;;;;;;5033655;28;20203;-80
2021/10/29 05:11:12;;;;;;;29.52;22.23;;;5.60;99.90;;;;;;5037818;28;20665;-80
2021/10/29 05:13:39;;;;;;;23.63;21.20;;;5.60;99.90;;;;;;5023327;28;20771;-80
2021/10/29 05:16:06;;;;;;;27.20;18.65;;;5.50;99.90;;;;;;5017437;28;20231;-80
2021/10/29 05:18:33;;;;;;;25.48;21.48;;;5.50;99.90;;;;;;5035985;28;20208;-80
2021/10/29 05:21:01;;;;;;;20.75;18.55;;;5.50;99.90;;;;;;5038078;28;20620;-80
2021/10/29 05:23:28;;;;;;;21.30;18.98;;;5.50;99.90;;;;;;5020521;28;20304;-79
2021/10/29 05:25:54;;;;;;;22.85;18.65;;;5.50;99.90;;;;;;5071330;22;20606;-82
2021/10/29 05:28:22;;;;;;;70.45;26.30;;;5.40;99.90;;;;;;5013856;28;20218;-83
2021/10/29 05:30:49;;;;;;;90.50;28.02;;;5.30;99.90;;;;;;5019080;28;20243;-83
2021/10/29 05:33:16;;;;;;;115.20;28.02;;;5.30;99.90;;;;;;5034314;28;20214;-83
2021/10/29 05:35:42;;;;;;;35.70;18.25;;;5.30;99.90;;;;;;5017266;28;20309;-83
2021/10/29 05:38:11;;;;;;;22.45;19.30;;;5.30;99.90;;;;;;5014682;28;20218;-82
2021/10/29 05:40:37;;;;;;;23.30;19.52;;;5.30;99.90;;;;;;5013951;28;20679;-81
2021/10/29 05:43:04;;;;;;;30.30;20.63;;;5.30;99.90;;;;;;5015112;28;20253;-82
2021/10/29 05:45:33;;;;;;;36.35;20.23;;;5.30;99.90;;;;;;5015921;28;20227;-82
2021/10/29 05:48:03;;;;;;;27.17;19.95;;;5.30;99.90;;;;;;5014078;28;20257;-82
2021/10/29 05:50:30;;;;;;;25.95;20.10;;;5.20;99.90;;;;;;5014177;28;20210;-82
2021/10/29 05:52:58;;;;;;;28.83;19.70;;;5.20;99.90;;;;;;5014135;28;20203;-80
2021/10/29 05:55:26;;;;;;;25.42;20.13;;;5.20;99.90;;;;;;5013154;28;20226;-81
2021/10/29 05:57:54;;;;;;;19.80;16.88;;;5.20;99.90;;;;;;5014239;28;20207;-81
2021/10/29 06:00:23;;;;;;;21.63;17.85;;;5.20;99.90;;;;;;5013724;28;20210;-83
2021/10/29 06:02:50;;;;;;;21.65;18.00;;;5.20;99.90;;;;;;5013662;28;20211;-82
2021/10/29 06:05:18;;;;;;;22.42;18.65;;;5.10;99.90;;;;;;5014534;28;20221;-81
2021/10/29 06:07:44;;;;;;;17.70;15.65;;;5.10;99.90;;;;;;5014126;28;20237;-82
2021/10/29 06:10:14;;;;;;;17.83;15.88;;;5.10;99.90;;;;;;5013263;28;20206;-82
2021/10/29 06:12:43;;;;;;;23.70;17.60;;;5.10;99.90;;;;;;5013758;28;20238;-82
2021/10/29 06:15:11;;;;;;;21.23;17.65;;;5.10;99.90;;;;;;5014450;28;20199;-81
2021/10/29 06:17:38;;;;;;;33.70;20.30;;;5.00;99.90;;;;;;5013908;28;20673;-81
2021/10/29 06:20:07;;;;;;;21.42;18.67;;;5.00;99.90;;;;;;5014043;28;20235;-83
2021/10/29 06:22:36;;;;;;;44.72;21.05;;;5.00;99.90;;;;;;5013686;28;20207;-81
2021/10/29 06:25:09;;;;;;;45.90;23.20;;;5.00;99.90;;;;;;5013982;28;20621;-81
2021/10/29 06:30:22;;;;;;;40.15;21.98;;;4.90;99.90;;;;;;5014183;28;20268;-83
2021/10/29 06:32:49;;;;;;;33.72;20.75;;;4.90;99.90;;;;;;5013457;28;20242;-84
2021/10/29 06:35:15;;;;;;;34.47;25.10;;;5.00;99.90;;;;;;5012684;28;20214;-83
2021/10/29 06:37:43;;;;;;;26.15;21.50;;;5.00;99.90;;;;;;5014324;28;20202;-82
2021/10/29 06:40:13;;;;;;;30.52;24.77;;;5.10;99.90;;;;;;5013644;28;20210;-84
2021/10/29 06:42:41;;;;;;;35.05;25.25;;;5.20;99.90;;;;;;5013242;28;20187;-85
2021/10/29 06:45:20;;;;;;;33.38;23.75;;;5.30;99.90;;;;;;5013830;28;20701;-85
2021/10/29 06:47:52;;;;;;;31.50;23.30;;;5.40;99.90;;;;;;5014723;28;20220;-82
2021/10/29 07:01:26;;;;;;;24.98;17.20;;;5.90;99.90;;;;;;4990023;28;20195;-82
2021/10/29 07:12:24;;;;;;;17.83;15.77;;;6.30;99.90;;;;;;4984973;28;20192;-84
2021/10/29 07:42:18;;;;;;;16.10;14.57;;;7.00;99.90;;;;;;4976964;28;20271;-82
2021/10/29 07:44:47;;;;;;;14.68;13.15;;;7.20;99.90;;;;;;4987951;28;20234;-80
2021/10/29 07:47:13;;;;;;;14.85;12.80;;;7.40;99.90;;;;;;5016348;28;20223;-81
2021/10/29 07:49:40;;;;;;;17.23;14.98;;;7.60;99.90;;;;;;5016651;28;20203;-82
2021/10/29 07:52:09;;;;;;;17.90;16.00;;;7.80;99.90;;;;;;5015778;28;20219;-81
2021/10/29 07:54:37;;;;;;;17.30;15.70;;;7.90;99.90;;;;;;5015465;28;20195;-82
2021/10/29 07:57:06;;;;;;;16.20;14.55;;;7.90;99.90;;;;;;5016288;28;20663;-81
2021/10/29 07:59:33;;;;;;;15.23;13.63;;;8.00;99.90;;;;;;5016575;28;20278;-82
2021/10/29 08:02:00;;;;;;;15.18;13.68;;;8.10;99.90;;;;;;5016270;28;20261;-82
2021/10/29 08:04:27;;;;;;;17.52;15.77;;;8.10;99.90;;;;;;5019783;28;20220;-80
2021/10/29 08:06:53;;;;;;;17.38;13.50;;;8.20;99.90;;;;;;5018284;28;20232;-81
2021/10/29 08:09:38;;;;;;;17.65;16.08;;;8.40;99.90;;;;;;5024404;28;20572;-80
2021/10/29 08:12:06;;;;;;;15.75;14.20;;;8.60;99.90;;;;;;5022496;28;20214;-82
2021/10/29 08:14:33;;;;;;;14.90;13.30;;;8.80;99.90;;;;;;5015769;28;20194;-81
2021/10/29 08:17:00;;;;;;;17.27;15.55;;;9.00;99.90;;;;;;5016602;28;20736;-82
2021/10/29 08:19:29;;;;;;;15.75;14.15;;;9.20;99.90;;;;;;5010351;28;20216;-82
2021/10/29 08:21:56;;;;;;;13.80;12.40;;;9.40;99.90;;;;;;4981154;28;20198;-85
2021/10/29 08:27:50;;;;;;;15.47;12.47;;;9.80;99.90;;;;;;5025588;28;20472;-84
2021/10/29 08:30:18;;;;;;;16.93;12.77;;;10.00;99.90;;;;;;5017966;28;20479;-87
2021/10/29 08:32:47;;;;;;;14.83;13.47;;;10.20;99.90;;;;;;5000907;28;20469;-83
2021/10/29 08:35:14;;;;;;;14.73;13.43;;;10.40;99.90;;;;;;4997477;28;20518;-85
2021/10/29 08:37:41;;;;;;;13.33;12.20;;;10.50;99.90;;;;;;4998605;28;20450;-85
2021/10/29 08:40:11;;;;;;;15.27;13.87;;;10.60;99.90;;;;;;4999426;28;20461;-83
2021/10/29 08:42:39;;;;;;;15.13;13.60;;;10.70;99.90;;;;;;5002009;28;20458;-84
2021/10/29 08:45:09;;;;;;;16.53;12.93;;;10.80;99.90;;;;;;5007289;28;20493;-86
2021/10/29 08:47:36;;;;;;;14.23;12.83;;;10.90;99.90;;;;;;5001440;28;20458;-84
2021/10/29 08:50:04;;;;;;;14.67;13.27;;;10.80;99.90;;;;;;5007534;28;20464;-83
2021/10/29 08:52:31;;;;;;;13.23;11.83;;;10.80;99.90;;;;;;4982004;28;20459;-83
2021/10/29 08:54:59;;;;;;;14.97;13.27;;;10.80;99.90;;;;;;4989605;28;20454;-83
2021/10/29 08:57:28;;;;;;;18.47;13.70;;;10.80;99.90;;;;;;4982631;28;20478;-86
2021/10/29 09:02:51;;;;;;;14.30;12.87;;;10.90;99.90;;;;;;5003543;28;20487;-84
2021/10/29 09:05:25;;;;;;;15.43;14.13;;;10.90;99.90;;;;;;4999901;28;20488;-83
2021/10/29 09:08:06;;;;;;;15.03;13.60;;;10.90;99.90;;;;;;4999781;28;20967;-82
2021/10/29 09:10:54;;;;;;;17.00;14.23;;;10.90;99.90;;;;;;4999667;28;20889;-83
2021/10/29 09:32:56;;;;;;;15.13;13.57;;;11.10;99.90;;;;;;5020181;28;20438;-87
2021/10/29 09:38:14;;;;;;;15.30;13.63;;;11.30;99.90;;;;;;5040646;28;20833;-85
2021/10/29 09:40:43;;;;;;;16.10;14.40;;;11.40;99.90;;;;;;5026468;28;20449;-84
2021/10/29 09:43:13;;;;;;;13.93;12.63;;;11.60;99.90;;;;;;5029513;28;20500;-86
2021/10/29 09:45:47;;;;;;;13.60;12.40;;;11.70;99.90;;;;;;5022717;28;20486;-86
2021/10/29 09:48:18;;;;;;;14.93;13.57;;;11.90;99.90;;;;;;5021660;28;20857;-83
2021/10/29 09:50:51;;;;;;;17.83;13.63;;;12.00;99.90;;;;;;5017712;28;20442;-85
2021/10/29 09:53:36;;;;;;;12.93;11.40;;;12.20;99.90;;;;;;5019604;28;20499;-85
2021/10/29 10:11:41;;;;;;;10.00;9.10;;;13.30;99.90;;;;;;4944073;28;20439;-84
2021/10/29 10:14:09;;;;;;;13.10;9.60;;;13.50;99.90;;;;;;4998256;28;20454;-84
2021/10/29 10:16:45;;;;;;;9.37;8.57;;;13.60;99.90;;;;;;4999644;28;20489;-85
2021/10/29 10:19:27;;;;;;;10.40;9.43;;;13.60;99.90;;;;;;4997076;28;20441;-85
2021/10/29 10:22:06;;;;;;;11.33;10.33;;;13.70;99.90;;;;;;4994581;28;20458;-85
2021/10/29 10:24:58;;;;;;;10.50;9.20;;;13.70;99.90;;;;;;5030591;28;20514;-85
2021/10/29 10:47:08;;;;;;;8.67;7.37;;;16.20;99.90;;;;;;4902497;29;20595;-85
2021/10/29 10:49:49;;;;;;;8.40;7.70;;;16.60;98.50;;;;;;4901955;29;20482;-86
2021/10/29 10:52:29;;;;;;;8.93;7.70;;;16.80;97.80;;;;;;4979351;28;20452;-86
2021/10/29 10:55:25;;;;;;;7.20;6.60;;;17.10;96.80;;;;;;4979100;28;20441;-85
2021/10/29 11:10:58;;;;;;;7.70;6.97;;;18.90;92.90;;;;;;5059825;28;20777;-86
2021/10/29 11:13:59;;;;;;;8.40;7.23;;;19.50;91.40;;;;;;5057750;28;20528;-85
2021/10/29 11:16:37;;;;;;;8.43;6.10;;;20.00;90.20;;;;;;5057655;28;20567;-85
2021/10/29 11:19:29;;;;;;;6.37;5.87;;;20.40;89.00;;;;;;5062337;28;20436;-85
2021/10/29 11:22:00;;;;;;;6.63;6.10;;;20.50;86.80;;;;;;5073327;28;20416;-85
2021/10/29 11:24:59;;;;;;;6.07;5.57;;;20.10;84.30;;;;;;5071616;28;20445;-86
2021/10/29 11:30:48;;;;;;;6.67;6.10;;;20.20;84.90;;;;;;5058774;28;20462;-85
2021/10/29 11:33:17;;;;;;;7.27;6.77;;;20.70;84.30;;;;;;5058354;28;20461;-84
2021/10/29 11:36:02;;;;;;;6.97;6.37;;;20.90;84.00;;;;;;5064561;28;20509;-84
2021/10/29 11:38:30;;;;;;;7.03;6.47;;;21.10;78.30;;;;;;5078027;28;20437;-85
2021/10/29 11:40:57;;;;;;;6.83;6.30;;;21.60;78.20;;;;;;5072105;28;21041;-85
2021/10/29 11:43:26;;;;;;;6.77;6.17;;;22.10;77.70;;;;;;5060380;28;20459;-85
2021/10/29 11:45:53;;;;;;;6.20;5.60;;;22.40;76.00;;;;;;5059808;28;21024;-86
2021/10/29 11:48:21;;;;;;;7.30;6.30;;;23.10;75.20;;;;;;5059590;28;21025;-86
2021/10/29 11:51:09;;;;;;;6.30;5.80;;;23.50;73.50;;;;;;5059689;28;20474;-86
2021/10/29 11:53:45;;;;;;;7.80;7.10;;;24.00;72.10;;;;;;5058555;28;20440;-86
2021/10/29 11:56:24;;;;;;;7.63;6.93;;;24.50;70.80;;;;;;5068742;28;20482;-86
2021/10/29 11:59:11;;;;;;;7.77;6.50;;;24.70;68.60;;;;;;5079261;28;20470;-86
2021/10/29 12:01:51;;;;;;;6.33;5.83;;;25.00;66.90;;;;;;5079391;28;20840;-86
2021/10/29 12:07:30;;;;;;;7.13;6.57;;;25.30;64.90;;;;;;5060252;28;20595;-85
2021/10/29 12:10:15;;;;;;;7.90;7.20;;;25.20;62.70;;;;;;5060238;28;20528;-85
2021/10/29 12:12:45;;;;;;;6.30;5.70;;;25.20;63.80;;;;;;5059136;28;20923;-83
2021/10/29 12:15:15;;;;;;;7.33;6.73;;;25.30;63.80;;;;;;5060570;28;20912;-85
2021/10/29 12:17:50;;;;;;;7.63;6.90;;;25.50;62.70;;;;;;5058016;28;20477;-86
2021/10/29 12:20:21;;;;;;;8.00;6.33;;;25.80;62.00;;;;;;5056255;28;20453;-86
2021/10/29 12:22:50;;;;;;;7.67;6.97;;;26.30;61.20;;;;;;5063181;28;20456;-85
2021/10/29 12:25:24;;;;;;;7.33;6.73;;;26.90;59.70;;;;;;5062910;28;21045;-83
2021/10/29 12:27:58;;;;;;;6.40;5.80;;;27.20;58.90;;;;;;5066774;28;20453;-84
2021/10/29 12:30:30;;;;;;;7.80;6.90;;;27.20;58.50;;;;;;5062112;28;20530;-83
2021/10/29 12:58:56;;;;;;;8.13;7.53;;;26.30;58.20;;;;;;5065726;28;20436;-83
2021/10/29 13:01:29;;;;;;;9.37;8.57;;;26.50;58.70;;;;;;5064268;28;20464;-84
2021/10/29 13:03:58;;;;;;;7.53;6.93;;;26.70;59.50;;;;;;5064101;28;20450;-83
2021/10/29 13:06:30;;;;;;;7.40;6.90;;;26.70;58.80;;;;;;5062558;28;20471;-84
2021/10/29 13:08:59;;;;;;;8.53;7.93;;;26.80;59.20;;;;;;5061532;28;20881;-84
2021/10/29 13:11:26;;;;;;;7.97;7.37;;;27.10;58.60;;;;;;5062508;28;21046;-83
2021/10/29 13:14:00;;;;;;;11.20;7.73;;;26.90;57.50;;;;;;5061724;28;20457;-83
2021/10/29 13:16:28;;;;;;;8.97;8.17;;;26.70;57.60;;;;;;5062420;28;20555;-84
2021/10/29 13:19:09;;;;;;;9.77;8.17;;;26.60;58.80;;;;;;5060899;28;20458;-83
2021/10/29 13:24:37;;;;;;;9.50;8.70;;;26.30;59.20;;;;;;5061754;28;20433;-84
2021/10/29 13:35:33;;;;;;;7.93;7.40;;;25.50;60.20;;;;;;5060596;28;20850;-84
2021/10/29 13:38:18;;;;;;;8.10;7.30;;;25.30;59.90;;;;;;5061960;28;20441;-84
2021/10/29 13:51:54;;;;;;;9.57;8.70;;;24.20;61.80;;;;;;5060981;28;20427;-84
2021/10/29 13:54:28;;;;;;;9.83;7.47;;;23.80;63.70;;;;;;5061123;28;20951;-83
2021/10/29 13:57:14;;;;;;;7.80;7.10;;;23.40;64.80;;;;;;5061394;28;20478;-84
2021/10/29 14:02:52;;;;;;;10.30;7.43;;;22.80;66.40;;;;;;5061422;28;20784;-85
2021/10/29 14:16:51;;;;;;;8.50;7.80;;;20.60;72.60;;;;;;5062298;28;20511;-84
2021/10/29 14:30:47;;;;;;;9.07;8.17;;;19.10;77.90;;;;;;5065148;28;20435;-84
2021/10/29 14:33:18;;;;;;;7.57;6.97;;;19.00;79.10;;;;;;5063652;28;20856;-84
2021/10/29 14:35:48;;;;;;;11.53;8.70;;;18.70;79.50;;;;;;5065441;28;20528;-84
2021/10/29 14:38:21;;;;;;;8.53;7.60;;;18.60;80.60;;;;;;5065221;28;20439;-84
2021/10/29 14:40:51;;;;;;;11.33;10.20;;;18.40;80.80;;;;;;5065122;28;20466;-84
2021/10/29 14:43:20;;;;;;;9.83;8.93;;;18.20;81.50;;;;;;5065664;28;20456;-84
2021/10/29 14:45:58;;;;;;;9.00;8.10;;;18.10;82.00;;;;;;5065615;28;20503;-84
2021/10/29 14:48:36;;;;;;;8.73;7.83;;;17.90;82.30;;;;;;5066448;28;20436;-83
2021/10/29 15:02:34;;;;;;;7.70;7.00;;;17.20;84.10;;;;;;5062131;28;20869;-84
2021/10/29 15:05:12;;;;;;;8.43;7.60;;;17.10;84.40;;;;;;5063600;28;20512;-83
2021/10/29 15:29:41;;;;;;;7.70;6.83;;;16.20;85.70;;;;;;5045021;28;20436;-83
2021/10/29 15:43:03;;;;;;;9.10;7.70;;;15.80;90.30;;;;;;5056890;28;21055;-82
2021/10/29 15:45:36;;;;;;;9.10;8.23;;;15.70;90.70;;;;;;5072692;28;20498;-82
2021/10/29 15:48:08;;;;;;;11.27;6.93;;;15.60;91.30;;;;;;5056997;28;20535;-82
2021/10/29 15:50:36;;;;;;;8.70;7.90;;;15.50;91.30;;;;;;5072280;28;20454;-83
2021/10/29 15:53:03;;;;;;;8.40;7.70;;;15.40;91.60;;;;;;5041713;28;20447;-82
2021/10/29 15:55:37;;;;;;;7.77;7.00;;;15.40;92.10;;;;;;5079828;28;20482;-82
2021/10/29 15:58:16;;;;;;;8.10;7.37;;;15.30;92.40;;;;;;5051510;28;20470;-82
2021/10/29 16:01:05;;;;;;;6.67;6.10;;;15.20;92.60;;;;;;5069182;28;20452;-82
2021/10/29 16:03:41;;;;;;;6.90;6.30;;;15.10;92.80;;;;;;5061599;28;20492;-82
2021/10/29 16:17:17;;;;;;;7.47;6.67;;;14.40;94.70;;;;;;5073775;28;20463;-82
2021/10/29 16:19:44;;;;;;;8.27;7.27;;;14.30;94.90;;;;;;5077645;28;20461;-82
2021/10/29 16:22:20;;;;;;;8.60;7.80;;;14.20;95.30;;;;;;5081483;28;20430;-82
2021/10/29 16:24:56;;;;;;;7.97;7.23;;;14.00;95.50;;;;;;5060736;28;20538;-81
2021/10/29 16:27:26;;;;;;;8.80;7.90;;;13.80;95.60;;;;;;5061314;28;20488;-81
2021/10/29 16:29:53;;;;;;;8.30;6.70;;;13.70;96.10;;;;;;5061467;28;20546;-82
2021/10/29 16:32:27;;;;;;;9.60;7.43;;;13.50;96.30;;;;;;5061568;28;20456;-83
2021/10/29 16:34:54;;;;;;;7.90;6.30;;;13.50;96.80;;;;;;5060463;28;20446;-82
2021/10/29 16:37:22;;;;;;;8.90;6.37;;;13.30;97.20;;;;;;5065599;28;20467;-81
2021/10/29 16:39:51;;;;;;;7.17;6.47;;;13.20;97.60;;;;;;5070835;28;20460;-83
2021/10/29 16:42:17;;;;;;;7.90;6.60;;;13.10;97.20;;;;;;5041104;28;20514;-82
2021/10/29 16:44:46;;;;;;;7.03;6.33;;;13.00;97.30;;;;;;5071144;28;20466;-85
2021/10/29 16:47:13;;;;;;;6.70;6.10;;;12.90;97.50;;;;;;5074367;28;20987;-83
2021/10/29 16:49:40;;;;;;;7.20;5.80;;;12.80;97.50;;;;;;5079211;28;20534;-84
2021/10/29 16:52:07;;;;;;;7.37;6.60;;;12.80;97.60;;;;;;5071782;28;20454;-83
2021/10/29 16:54:35;;;;;;;7.27;6.57;;;12.70;97.70;;;;;;5087092;28;20453;-83
2021/10/29 16:57:02;;;;;;;7.33;6.67;;;12.50;97.80;;;;;;5082979;28;20907;-83
2021/10/29 16:59:29;;;;;;;9.10;7.80;;;12.40;97.90;;;;;;5085019;28;20481;-84
2021/10/29 17:01:55;;;;;;;7.20;6.50;;;12.30;98.10;;;;;;5082333;28;20465;-84
2021/10/29 17:04:22;;;;;;;8.70;7.80;;;12.30;98.30;;;;;;5085977;28;20469;-84
2021/10/29 17:06:49;;;;;;;8.97;8.10;;;12.20;98.40;;;;;;5060484;28;20507;-83
2021/10/29 17:09:16;;;;;;;8.40;7.60;;;12.20;98.60;;;;;;5065570;28;20469;-83
2021/10/29 17:11:44;;;;;;;8.80;8.07;;;12.00;98.50;;;;;;5068998;28;20551;-83
2021/10/29 17:14:11;;;;;;;8.13;7.33;;;11.90;98.80;;;;;;5086190;28;20457;-83